Thomson Dream — 9HA2381 — position and weather

sailwx.info

Track history (hours):
 
Tides and Currents Weather Stations Pressure Air Temp Water Temp Dewpoint Dewpoint Depression Visibility Wind Speed Wind Dir Waves Ship Positions

Thomson Dream

Last reported at 2017-Aug-20 15:28 UTC. Time now 2017-Aug-20 15:37 UTC.
Position N 45°33' E 013°44'.

Length 243 m; draft 7.6 m.

Type: Ship. MMSI: 248480975.

Date/timePositionNaut miles runAvg speedWind from/ knotsBaromVisibWave heightAir tempDewpointWater temp
2017-Aug-20 15:28N 45°33' E 013°44'0 0.0
2017-Aug-20 14:58N 45°33' E 013°44'0 0.0
2017-Aug-20 14:30N 45°33' E 013°44'0 0.0
2017-Aug-20 13:57N 45°33' E 013°44'0 0.0
2017-Aug-20 13:27N 45°33' E 013°44'0 0.0
2017-Aug-20 13:00N 45°33' E 013°44'0 0.0
2017-Aug-20 12:27N 45°33' E 013°44'0 0.0
2017-Aug-20 12:00N 45°33' E 013°44'0 0.0
2017-Aug-20 11:30N 45°33' E 013°44'0 0.0
2017-Aug-20 11:00N 45°33' E 013°44'0 0.0
2017-Aug-20 10:30N 45°33' E 013°44'0 0.0
2017-Aug-20 10:00N 45°33' E 013°44'0 0.0
2017-Aug-20 09:30N 45°33' E 013°44'0 0.0
2017-Aug-20 09:00N 45°33' E 013°44'0 0.0
2017-Aug-20 08:30N 45°33' E 013°44'0 0.0
2017-Aug-20 08:00N 45°33' E 013°44'0 0.0
2017-Aug-20 07:30N 45°33' E 013°44'0 0.0
2017-Aug-20 07:00N 45°33' E 013°44'0 0.0
2017-Aug-20 06:29N 45°33' E 013°44'0 0.0
2017-Aug-20 06:00N 45°33' E 013°44'0 0.0
2017-Aug-20 05:30N 45°33' E 013°44'1 1.7
2017-Aug-20 05:00N 45°33' E 013°43'4 8.2
2017-Aug-20 04:30N 45°34' E 013°37'714.8
2017-Aug-20 04:00N 45°32' E 013°27'816.4
2017-Aug-20 03:30N 45°27' E 013°18'815.2
2017-Aug-20 03:00N 45°20' E 013°13'713.3
2017-Aug-20 02:30N 45°14' E 013°14'510.5
2017-Aug-20 02:00N 45°09' E 013°15'510.9
2017-Aug-20 01:30N 45°04' E 013°18'510.6
2017-Aug-20 01:00N 44°59' E 013°21'510.1
2017-Aug-20 00:30N 44°55' E 013°25'1910.5
2017-Aug-19 22:40N 44°39' E 013°40'211.3
2017-Aug-19 22:30N 44°37' E 013°42'612.4
2017-Aug-19 22:00N 44°32' E 013°46'816.7
2017-Aug-19 21:30N 44°25' E 013°52'917.0
2017-Aug-19 21:00N 44°18' E 013°59'917.2
2017-Aug-19 20:30N 44°11' E 014°06'1017.5
2017-Aug-19 19:55N 44°02' E 014°14'717.5
2017-Aug-19 19:30N 43°56' E 014°19'3317.8
2017-Aug-19 17:38N 43°29' E 014°45'218.0
2017-Aug-19 17:30N 43°27' E 014°47'25416.8
2017-Aug-19 02:24N 40°33' E 018°56'717.1
2017-Aug-19 01:59N 40°26' E 018°59'816.6
2017-Aug-19 01:30N 40°19' E 019°03'917.4
2017-Aug-19 01:00N 40°14' E 019°12'1017.6
2017-Aug-19 00:27N 40°09' E 019°23'817.6
2017-Aug-19 00:00N 40°04' E 019°31'917.8
2017-Aug-18 23:30N 39°59' E 019°41'61 2.6
2017-Aug-18 00:11N 39°07' E 020°22'212.4
2017-Aug-18 00:00N 39°04' E 020°21'612.0
2017-Aug-17 23:30N 38°59' E 020°18'611.5
2017-Aug-17 23:00N 38°53' E 020°16'611.5
2017-Aug-17 22:31N 38°48' E 020°14'611.6
2017-Aug-17 22:00N 38°42' E 020°12'611.9
2017-Aug-17 21:30N 38°36' E 020°10'1511.1
2017-Aug-17 20:08N 38°22' E 020°05'311.0
2017-Aug-17 19:50N 38°18' E 020°04'310.8
2017-Aug-17 19:30N 38°15' E 020°04'100 6.1
2017-Aug-17 03:05N 36°56' E 021°24'318.0
2017-Aug-17 02:54N 36°54' E 021°26'717.9
2017-Aug-17 02:31N 36°48' E 021°31'918.1
2017-Aug-17 02:01N 36°41' E 021°37'11612.7
2017-Aug-16 16:53N 37°38' E 023°44'718.0
2017-Aug-16 16:31N 37°44' E 023°40'917.5
2017-Aug-16 16:01N 37°52' E 023°37'4 8.5
2017-Aug-16 15:30N 37°56' E 023°38'0 0.4
2017-Aug-16 14:59N 37°56' E 023°38'0 0.0
2017-Aug-16 14:29N 37°56' E 023°38'0 0.0
2017-Aug-16 13:59N 37°56' E 023°38'0 0.0
2017-Aug-16 13:29N 37°56' E 023°38'0 0.0
2017-Aug-16 12:59N 37°56' E 023°38'0 0.0
2017-Aug-16 12:29N 37°56' E 023°38'0 0.0
2017-Aug-16 11:59N 37°56' E 023°38'0 0.0
2017-Aug-16 11:29N 37°56' E 023°38'0 0.0
2017-Aug-16 10:59N 37°56' E 023°38'0 0.0
2017-Aug-16 10:29N 37°56' E 023°38'0 0.0
2017-Aug-16 09:59N 37°56' E 023°38'0 0.0
2017-Aug-16 09:29N 37°56' E 023°38'0 0.0
2017-Aug-16 08:59N 37°56' E 023°38'0 0.0
2017-Aug-16 08:29N 37°56' E 023°38'0 0.0
2017-Aug-16 07:59N 37°56' E 023°38'0 0.0
2017-Aug-16 07:29N 37°56' E 023°38'0 0.0
2017-Aug-16 06:59N 37°56' E 023°38'0 0.0
2017-Aug-16 06:29N 37°56' E 023°38'0 0.0
2017-Aug-16 05:59N 37°56' E 023°38'0 0.0
2017-Aug-16 05:29N 37°56' E 023°38'0 0.0
2017-Aug-16 04:59N 37°56' E 023°38'0 0.0
2017-Aug-16 04:29N 37°56' E 023°38'0 0.0
2017-Aug-16 04:00N 37°56' E 023°38'1 3.0
2017-Aug-16 03:31N 37°55' E 023°36'1 1.0
2017-Aug-16 03:00N 37°55' E 023°36'714.2
2017-Aug-16 02:30N 37°49' E 023°40'917.3
2017-Aug-16 02:00N 37°41' E 023°45'815.3
2017-Aug-16 01:30N 37°34' E 023°47'611.4
2017-Aug-16 01:00N 37°28' E 023°49'611.4
2017-Aug-16 00:29N 37°23' E 023°51'611.4
2017-Aug-16 00:01N 37°17' E 023°53'611.4
2017-Aug-15 23:30N 37°12' E 023°55'10213.4
2017-Aug-15 15:54N 35°32' E 024°17'1 0.1
2017-Aug-15 03:59N 35°31' E 024°17'715.7
2017-Aug-15 03:30N 35°33' E 024°25'50 1.0
2017-Aug-12 23:38N 36°19' E 023°60'518.9
2017-Aug-12 23:22N 36°19' E 023°53'1018.7
2017-Aug-12 22:51N 36°18' E 023°41'331 7.0
2017-Aug-10 23:11N 40°26' E 018°60'318.4
2017-Aug-10 23:00N 40°29' E 018°58'918.4
2017-Aug-10 22:30N 40°38' E 018°57'918.3
2017-Aug-10 22:00N 40°47' E 018°55'918.4
2017-Aug-10 21:30N 40°56' E 018°53'1118.5
2017-Aug-10 20:53N 41°07' E 018°51'  
Track history (hours):
 
Tides and Currents Weather Stations Pressure Air Temp Water Temp Dewpoint Dewpoint Depression Visibility Wind Speed Wind Dir Waves Ship Positions

Thomson Dream

Last reported at 2017-Aug-20 15:28 UTC. Time now 2017-Aug-20 15:37 UTC.
Position N 45°33' E 013°44'.

Length 243 m; draft 7.6 m.

Type: Ship. MMSI: 248480975.

Date/timePositionNaut miles runAvg speedWind from/ knotsBaromVisibWave heightAir tempDewpointWater temp
2017-Aug-20 15:28N 45°33' E 013°44'0 0.0
2017-Aug-20 14:58N 45°33' E 013°44'0 0.0
2017-Aug-20 14:30N 45°33' E 013°44'0 0.0
2017-Aug-20 13:57N 45°33' E 013°44'0 0.0
2017-Aug-20 13:27N 45°33' E 013°44'0 0.0
2017-Aug-20 13:00N 45°33' E 013°44'0 0.0
2017-Aug-20 12:27N 45°33' E 013°44'0 0.0
2017-Aug-20 12:00N 45°33' E 013°44'0 0.0
2017-Aug-20 11:30N 45°33' E 013°44'0 0.0
2017-Aug-20 11:00N 45°33' E 013°44'0 0.0
2017-Aug-20 10:30N 45°33' E 013°44'0 0.0
2017-Aug-20 10:00N 45°33' E 013°44'0 0.0
2017-Aug-20 09:30N 45°33' E 013°44'0 0.0
2017-Aug-20 09:00N 45°33' E 013°44'0 0.0
2017-Aug-20 08:30N 45°33' E 013°44'0 0.0
2017-Aug-20 08:00N 45°33' E 013°44'0 0.0
2017-Aug-20 07:30N 45°33' E 013°44'0 0.0
2017-Aug-20 07:00N 45°33' E 013°44'0 0.0
2017-Aug-20 06:29N 45°33' E 013°44'0 0.0
2017-Aug-20 06:00N 45°33' E 013°44'0 0.0
2017-Aug-20 05:30N 45°33' E 013°44'1 1.7
2017-Aug-20 05:00N 45°33' E 013°43'4 8.2
2017-Aug-20 04:30N 45°34' E 013°37'714.8
2017-Aug-20 04:00N 45°32' E 013°27'816.4
2017-Aug-20 03:30N 45°27' E 013°18'815.2
2017-Aug-20 03:00N 45°20' E 013°13'713.3
2017-Aug-20 02:30N 45°14' E 013°14'510.5
2017-Aug-20 02:00N 45°09' E 013°15'510.9
2017-Aug-20 01:30N 45°04' E 013°18'510.6
2017-Aug-20 01:00N 44°59' E 013°21'510.1
2017-Aug-20 00:30N 44°55' E 013°25'1910.5
2017-Aug-19 22:40N 44°39' E 013°40'211.3
2017-Aug-19 22:30N 44°37' E 013°42'612.4
2017-Aug-19 22:00N 44°32' E 013°46'816.7
2017-Aug-19 21:30N 44°25' E 013°52'917.0
2017-Aug-19 21:00N 44°18' E 013°59'917.2
2017-Aug-19 20:30N 44°11' E 014°06'1017.5
2017-Aug-19 19:55N 44°02' E 014°14'717.5
2017-Aug-19 19:30N 43°56' E 014°19'3317.8
2017-Aug-19 17:38N 43°29' E 014°45'218.0
2017-Aug-19 17:30N 43°27' E 014°47'25416.8
2017-Aug-19 02:24N 40°33' E 018°56'717.1
2017-Aug-19 01:59N 40°26' E 018°59'816.6
2017-Aug-19 01:30N 40°19' E 019°03'917.4
2017-Aug-19 01:00N 40°14' E 019°12'1017.6
2017-Aug-19 00:27N 40°09' E 019°23'817.6
2017-Aug-19 00:00N 40°04' E 019°31'917.8
2017-Aug-18 23:30N 39°59' E 019°41'61 2.6
2017-Aug-18 00:11N 39°07' E 020°22'212.4
2017-Aug-18 00:00N 39°04' E 020°21'612.0
2017-Aug-17 23:30N 38°59' E 020°18'611.5
2017-Aug-17 23:00N 38°53' E 020°16'611.5
2017-Aug-17 22:31N 38°48' E 020°14'611.6
2017-Aug-17 22:00N 38°42' E 020°12'611.9
2017-Aug-17 21:30N 38°36' E 020°10'1511.1
2017-Aug-17 20:08N 38°22' E 020°05'311.0
2017-Aug-17 19:50N 38°18' E 020°04'310.8
2017-Aug-17 19:30N 38°15' E 020°04'100 6.1
2017-Aug-17 03:05N 36°56' E 021°24'318.0
2017-Aug-17 02:54N 36°54' E 021°26'717.9
2017-Aug-17 02:31N 36°48' E 021°31'918.1
2017-Aug-17 02:01N 36°41' E 021°37'11612.7
2017-Aug-16 16:53N 37°38' E 023°44'718.0
2017-Aug-16 16:31N 37°44' E 023°40'917.5
2017-Aug-16 16:01N 37°52' E 023°37'4 8.5
2017-Aug-16 15:30N 37°56' E 023°38'0 0.4
2017-Aug-16 14:59N 37°56' E 023°38'0 0.0
2017-Aug-16 14:29N 37°56' E 023°38'0 0.0
2017-Aug-16 13:59N 37°56' E 023°38'0 0.0
2017-Aug-16 13:29N 37°56' E 023°38'0 0.0
2017-Aug-16 12:59N 37°56' E 023°38'0 0.0
2017-Aug-16 12:29N 37°56' E 023°38'0 0.0
2017-Aug-16 11:59N 37°56' E 023°38'0 0.0
2017-Aug-16 11:29N 37°56' E 023°38'0 0.0
2017-Aug-16 10:59N 37°56' E 023°38'0 0.0
2017-Aug-16 10:29N 37°56' E 023°38'0 0.0
2017-Aug-16 09:59N 37°56' E 023°38'0 0.0
2017-Aug-16 09:29N 37°56' E 023°38'0 0.0
2017-Aug-16 08:59N 37°56' E 023°38'0 0.0
2017-Aug-16 08:29N 37°56' E 023°38'0 0.0
2017-Aug-16 07:59N 37°56' E 023°38'0 0.0
2017-Aug-16 07:29N 37°56' E 023°38'0 0.0
2017-Aug-16 06:59N 37°56' E 023°38'0 0.0
2017-Aug-16 06:29N 37°56' E 023°38'0 0.0
2017-Aug-16 05:59N 37°56' E 023°38'0 0.0
2017-Aug-16 05:29N 37°56' E 023°38'0 0.0
2017-Aug-16 04:59N 37°56' E 023°38'0 0.0
2017-Aug-16 04:29N 37°56' E 023°38'0 0.0
2017-Aug-16 04:00N 37°56' E 023°38'1 3.0
2017-Aug-16 03:31N 37°55' E 023°36'1 1.0
2017-Aug-16 03:00N 37°55' E 023°36'714.2
2017-Aug-16 02:30N 37°49' E 023°40'917.3
2017-Aug-16 02:00N 37°41' E 023°45'815.3
2017-Aug-16 01:30N 37°34' E 023°47'611.4
2017-Aug-16 01:00N 37°28' E 023°49'611.4
2017-Aug-16 00:29N 37°23' E 023°51'611.4
2017-Aug-16 00:01N 37°17' E 023°53'611.4
2017-Aug-15 23:30N 37°12' E 023°55'10213.4
2017-Aug-15 15:54N 35°32' E 024°17'1 0.1
2017-Aug-15 03:59N 35°31' E 024°17'715.7
2017-Aug-15 03:30N 35°33' E 024°25'50 1.0
2017-Aug-12 23:38N 36°19' E 023°60'518.9
2017-Aug-12 23:22N 36°19' E 023°53'1018.7
2017-Aug-12 22:51N 36°18' E 023°41'331 7.0
2017-Aug-10 23:11N 40°26' E 018°60'318.4
2017-Aug-10 23:00N 40°29' E 018°58'918.4
2017-Aug-10 22:30N 40°38' E 018°57'918.3
2017-Aug-10 22:00N 40°47' E 018°55'918.4
2017-Aug-10 21:30N 40°56' E 018°53'1118.5
2017-Aug-10 20:53N 41°07' E 018°51'  

Dump ship's entire track history